createdAt,value
2018-05-07T00:07:56.570Z,3.35
2018-05-07T00:17:46.397Z,3.35
2018-05-07T00:27:35.293Z,3.35
2018-05-07T00:37:24.435Z,3.34
2018-05-07T00:47:11.167Z,3.34
2018-05-07T00:57:01.940Z,3.34
2018-05-07T01:06:51.675Z,3.34
2018-05-07T01:16:38.376Z,3.34
2018-05-07T01:26:24.633Z,3.34
2018-05-07T01:36:13.850Z,3.34
2018-05-07T01:46:05.095Z,3.34
2018-05-07T01:56:00.620Z,3.34
2018-05-07T02:05:46.697Z,3.34
2018-05-07T02:15:36.694Z,3.34
2018-05-07T02:25:27.158Z,3.34
2018-05-07T02:35:16.659Z,3.34
2018-05-07T02:45:05.228Z,3.33
2018-05-07T02:54:55.154Z,3.33
2018-05-07T03:04:48.490Z,3.33
2018-05-07T03:14:36.137Z,3.33
2018-05-07T03:24:24.874Z,3.33
2018-05-07T03:34:11.259Z,3.33
2018-05-07T03:44:02.204Z,3.33
2018-05-07T03:53:51.730Z,3.33
2018-05-07T04:03:37.240Z,3.33
2018-05-07T04:13:26.541Z,3.33
2018-05-07T04:23:24.471Z,3.34
2018-05-07T04:33:21.199Z,3.34
2018-05-07T04:43:18.092Z,3.34
2018-05-07T04:53:14.728Z,3.36
2018-05-07T05:03:09.138Z,3.36
2018-05-07T05:13:03.180Z,3.37
2018-05-07T05:23:02.816Z,3.38
2018-05-07T05:32:56.916Z,3.39
2018-05-07T05:42:53.782Z,3.40
2018-05-07T05:52:52.599Z,3.41
2018-05-07T06:02:49.597Z,3.43
2018-05-07T06:12:45.272Z,3.44
2018-05-07T06:22:43.960Z,3.44
2018-05-07T06:32:39.850Z,3.41
2018-05-07T06:42:37.056Z,3.42
2018-05-07T06:52:34.844Z,3.45
2018-05-07T07:02:32.185Z,3.42
2018-05-07T07:12:26.825Z,3.42
2018-05-07T07:22:22.269Z,3.43
2018-05-07T07:32:19.563Z,3.42
2018-05-07T07:42:16.439Z,3.43
2018-05-07T07:52:11.185Z,3.42
2018-05-07T08:02:09.025Z,3.42
2018-05-07T08:12:07.602Z,3.43
2018-05-07T08:22:04.654Z,3.42
2018-05-07T08:32:01.901Z,3.42
2018-05-07T08:42:00.470Z,3.42
2018-05-07T08:51:39.952Z,3.42
2018-05-07T09:01:17.454Z,3.42
2018-05-07T09:10:58.313Z,3.42
2018-05-07T09:20:27.848Z,3.42
2018-05-07T09:30:06.000Z,3.42
2018-05-07T09:39:43.255Z,3.42
2018-05-07T09:49:20.871Z,3.42
2018-05-07T09:58:58.543Z,3.42
2018-05-07T10:08:36.288Z,3.42
2018-05-07T10:18:14.186Z,3.42
2018-05-07T10:27:51.807Z,3.42
2018-05-07T10:37:29.805Z,3.42
2018-05-07T10:47:08.034Z,3.42
2018-05-07T10:56:46.089Z,3.42
2018-05-07T11:06:24.321Z,3.42
2018-05-07T11:16:01.964Z,3.42
2018-05-07T11:25:39.466Z,3.42
2018-05-07T11:35:17.701Z,3.42
2018-05-07T11:44:55.290Z,3.42
2018-05-07T11:54:33.275Z,3.42
2018-05-07T12:04:11.483Z,3.42
2018-05-07T12:13:47.549Z,3.42
2018-05-07T12:23:24.832Z,3.42
2018-05-07T12:33:06.772Z,3.42
2018-05-07T12:42:36.576Z,3.42
2018-05-07T12:52:15.356Z,3.42
2018-05-07T13:01:53.722Z,3.43
2018-05-07T13:11:31.545Z,3.43
2018-05-07T13:21:09.442Z,3.43
2018-05-07T13:30:48.581Z,3.43
2018-05-07T13:40:26.811Z,3.43
2018-05-07T13:50:06.281Z,3.43
2018-05-07T13:59:43.810Z,3.43
2018-05-07T14:09:22.765Z,3.43
2018-05-07T14:19:02.202Z,3.43
2018-05-07T14:28:40.478Z,3.43
2018-05-07T14:38:17.250Z,3.43
2018-05-07T14:47:56.060Z,3.43
2018-05-07T14:57:38.798Z,3.43
2018-05-07T15:07:07.684Z,3.43
2018-05-07T15:16:48.351Z,3.43
2018-05-07T15:26:18.664Z,3.43
2018-05-07T15:35:54.277Z,3.43
2018-05-07T15:45:28.581Z,3.42
2018-05-07T15:54:57.010Z,3.42
2018-05-07T16:04:29.865Z,3.42
2018-05-07T16:14:05.189Z,3.42
2018-05-07T16:23:41.516Z,3.41
2018-05-07T16:33:17.661Z,3.41
2018-05-07T16:43:13.125Z,3.41
2018-05-07T16:52:48.455Z,3.41
2018-05-07T17:02:28.985Z,3.41
2018-05-07T17:12:24.707Z,3.42
2018-05-07T17:22:16.443Z,3.42
2018-05-07T17:32:08.260Z,3.42
2018-05-07T17:42:05.441Z,3.42
2018-05-07T17:51:58.352Z,3.41
2018-05-07T18:01:48.751Z,3.41
2018-05-07T18:11:40.605Z,3.41
2018-05-07T18:21:38.379Z,3.40
2018-05-07T18:32:39.733Z,3.40
2018-05-07T18:43:41.659Z,3.40
2018-05-07T18:54:43.483Z,3.40
2018-05-07T19:05:45.085Z,3.39
2018-05-07T19:16:46.453Z,3.39
2018-05-07T19:27:45.649Z,3.39
2018-05-07T19:38:47.232Z,3.39
2018-05-07T19:49:46.460Z,3.39
2018-05-07T20:00:47.433Z,3.38
2018-05-07T20:11:41.094Z,3.38
2018-05-07T20:22:41.082Z,3.38
2018-05-07T20:33:39.080Z,3.37
2018-05-07T20:44:36.404Z,3.37
2018-05-07T20:55:31.653Z,3.37
2018-05-07T21:06:27.107Z,3.37
2018-05-07T21:17:25.248Z,3.36
2018-05-07T21:28:19.075Z,3.36
2018-05-07T21:39:19.543Z,3.36
2018-05-07T21:50:11.761Z,3.36
2018-05-07T22:01:08.998Z,3.35
2018-05-07T22:12:05.094Z,3.34
2018-05-07T22:22:59.961Z,3.34
2018-05-07T22:33:59.493Z,3.34
2018-05-07T22:44:59.235Z,3.34
2018-05-07T22:55:58.147Z,3.34
2018-05-07T23:06:58.908Z,3.34
2018-05-07T23:17:55.853Z,3.33
2018-05-07T23:28:55.472Z,3.33
2018-05-07T23:39:53.890Z,3.33
2018-05-07T23:50:51.846Z,3.33
